Time,TemperatureF,DewpointF,PressureIn,WindDirection,WindDirectionDegrees,WindSpeedMPH,WindSpeedGustMPH,Humidity,HourlyPrecipIn,Conditions,Clouds,dailyrainin,SoftwareType,DateUTC
2013-09-27 00:02:00,72.5,49.4,29.12,SSE,160,0.1,3.4,45,-99.99,,,-99.99,WSDL version 426,2013-09-27 05:02:00,
2013-09-27 00:07:00,72.9,50.1,29.12,South,169,0.7,2.2,44,-99.99,,,-99.99,WSDL version 426,2013-09-27 05:07:00,
2013-09-27 00:12:00,72.4,48.9,29.12,SSE,155,1.9,2.9,43,-99.99,,,-99.99,WSDL version 426,2013-09-27 05:12:00,
2013-09-27 00:17:00,71.7,48.3,29.12,SE,140,1.1,2.9,44,-99.99,,,-99.99,WSDL version 426,2013-09-27 05:17:00,
2013-09-27 00:22:00,71.1,48.6,29.12,SSE,158,1.5,2.7,45,-99.99,,,-99.99,WSDL version 426,2013-09-27 05:22:00,
2013-09-27 00:27:00,70.6,48.5,29.12,SSE,149,1.4,3.4,46,-99.99,,,-99.99,WSDL version 426,2013-09-27 05:27:00,
2013-09-27 00:32:00,71.0,50.9,29.12,SE,145,1.2,3.4,49,-99.99,,,-99.99,WSDL version 426,2013-09-27 05:32:00,
2013-09-27 00:37:00,71.1,50.0,29.12,SE,135,0.1,1.6,47,-99.99,,,-99.99,WSDL version 426,2013-09-27 05:37:00,
2013-09-27 00:42:00,70.5,49.2,29.12,SSE,163,1.2,3.4,47,-99.99,,,-99.99,WSDL version 426,2013-09-27 05:42:00,
2013-09-27 00:47:00,70.2,49.0,29.12,SSE,150,1.4,3.6,47,-99.99,,,-99.99,WSDL version 426,2013-09-27 05:47:00,
2013-09-27 00:52:00,69.9,49.3,29.12,South,188,1.5,3.6,50,-99.99,,,-99.99,WSDL version 426,2013-09-27 05:52:00,
2013-09-27 00:57:00,70.3,51.3,29.12,SSE,158,1.4,2.7,51,-99.99,,,-99.99,WSDL version 426,2013-09-27 05:57:00,
2013-09-27 01:02:00,70.3,50.2,29.12,ESE,113,0.8,2.7,48,-99.99,,,-99.99,WSDL version 426,2013-09-27 06:02:00,
2013-09-27 01:07:00,69.8,49.3,29.12,ESE,113,0.0,2.0,49,-99.99,,,-99.99,WSDL version 426,2013-09-27 06:07:00,
2013-09-27 01:12:00,69.4,49.4,29.12,ESE,113,0.5,2.0,49,-99.99,,,-99.99,WSDL version 426,2013-09-27 06:12:00,
2013-09-27 01:17:00,69.2,49.3,29.12,SE,135,1.3,2.2,49,-99.99,,,-99.99,WSDL version 426,2013-09-27 06:17:00,
2013-09-27 01:22:00,69.2,50.8,29.12,SE,140,1.4,2.2,53,-99.99,,,-99.99,WSDL version 426,2013-09-27 06:22:00,
2013-09-27 01:27:00,69.6,51.1,29.12,SE,135,1.4,2.5,51,-99.99,,,-99.99,WSDL version 426,2013-09-27 06:27:00,
2013-09-27 01:32:00,69.2,49.8,29.12,SE,135,0.0,2.5,50,-99.99,,,-99.99,WSDL version 426,2013-09-27 06:32:00,
2013-09-27 01:37:00,68.8,49.4,29.12,SE,135,0.6,2.2,50,-99.99,,,-99.99,WSDL version 426,2013-09-27 06:37:00,
2013-09-27 01:42:00,68.6,49.2,29.12,SE,135,0.6,2.5,50,-99.99,,,-99.99,WSDL version 426,2013-09-27 06:42:00,
2013-09-27 01:47:00,68.3,49.4,29.12,SE,135,0.9,2.5,51,-99.99,,,-99.99,WSDL version 426,2013-09-27 06:47:00,
2013-09-27 01:52:00,68.4,50.9,29.12,SSE,167,0.5,2.5,55,-99.99,,,-99.99,WSDL version 426,2013-09-27 06:52:00,
2013-09-27 01:57:00,69.0,51.6,29.12,ESE,120,0.6,2.0,52,-99.99,,,-99.99,WSDL version 426,2013-09-27 06:57:00,
2013-09-27 02:02:00,68.8,50.3,29.12,ESE,113,1.3,2.0,51,-99.99,,,-99.99,WSDL version 426,2013-09-27 07:02:00,
2013-09-27 02:07:00,68.4,49.7,29.12,SE,135,0.4,2.0,51,-99.99,,,-99.99,WSDL version 426,2013-09-27 07:07:00,
2013-09-27 02:12:00,68.1,49.7,29.12,SSE,158,1.8,2.5,52,-99.99,,,-99.99,WSDL version 426,2013-09-27 07:12:00,
2013-09-27 02:17:00,67.9,49.9,29.12,SE,135,1.4,2.7,53,-99.99,,,-99.99,WSDL version 426,2013-09-27 07:17:00,
2013-09-27 02:22:00,67.7,49.7,29.12,ESE,113,1.3,2.7,52,-99.99,,,-99.99,WSDL version 426,2013-09-27 07:22:00,
2013-09-27 02:27:00,67.5,49.7,29.12,SE,135,1.2,2.5,53,-99.99,,,-99.99,WSDL version 426,2013-09-27 07:27:00,
2013-09-27 02:32:00,67.3,49.6,29.15,SE,135,1.6,2.9,53,-99.99,,,-99.99,WSDL version 426,2013-09-27 07:32:00,
2013-09-27 02:37:00,67.2,49.5,29.15,SE,135,1.1,2.9,53,-99.99,,,-99.99,WSDL version 426,2013-09-27 07:37:00,
2013-09-27 02:42:00,67.2,50.6,29.15,SSE,158,0.4,2.5,58,-99.99,,,-99.99,WSDL version 426,2013-09-27 07:42:00,
2013-09-27 02:47:00,67.7,52.0,29.12,SSE,150,1.0,2.5,56,-99.99,,,-99.99,WSDL version 426,2013-09-27 07:47:00,
2013-09-27 02:52:00,67.6,50.8,29.12,SE,146,0.8,2.2,54,-99.99,,,-99.99,WSDL version 426,2013-09-27 07:52:00,
2013-09-27 02:53:00,67.5,50.7,29.12,SE,135,0.9,2.2,55,-99.99,,,-99.99,WSDL version 426,2013-09-27 07:53:00,
2013-09-27 02:58:00,67.0,50.0,29.12,ESE,113,1.4,2.5,54,-99.99,,,-99.99,WSDL version 426,2013-09-27 07:58:00,
2013-09-27 03:03:00,66.7,49.5,29.12,ESE,113,1.2,2.5,54,-99.99,,,-99.99,WSDL version 426,2013-09-27 08:03:00,
2013-09-27 03:08:00,66.6,49.4,29.12,ESE,120,1.7,3.4,54,-99.99,,,-99.99,WSDL version 426,2013-09-27 08:08:00,
2013-09-27 03:13:00,66.6,49.9,29.12,SE,135,1.8,3.6,55,-99.99,,,-99.99,WSDL version 426,2013-09-27 08:13:00,
2013-09-27 03:18:00,66.6,49.9,29.12,ESE,120,2.7,3.6,55,-99.99,,,-99.99,WSDL version 426,2013-09-27 08:18:00,
2013-09-27 03:23:00,66.5,50.0,29.12,ESE,113,2.2,3.4,56,-99.99,,,-99.99,WSDL version 426,2013-09-27 08:23:00,
2013-09-27 03:28:00,66.4,50.2,29.12,ESE,110,2.5,4.3,56,-99.99,,,-99.99,WSDL version 426,2013-09-27 08:28:00,
2013-09-27 03:33:00,66.5,50.4,29.15,ESE,123,1.6,4.3,56,-99.99,,,-99.99,WSDL version 426,2013-09-27 08:33:00,
2013-09-27 03:38:00,66.5,50.3,29.15,ESE,115,1.7,3.1,56,-99.99,,,-99.99,WSDL version 426,2013-09-27 08:38:00,
2013-09-27 03:43:00,66.6,51.9,29.15,ESE,121,3.4,4.9,61,-99.99,,,-99.99,WSDL version 426,2013-09-27 08:43:00,
2013-09-27 03:48:00,67.3,52.8,29.15,ESE,121,2.2,4.9,58,-99.99,,,-99.99,WSDL version 426,2013-09-27 08:48:00,
2013-09-27 03:53:00,67.0,51.5,29.15,SE,138,2.2,4.0,57,-99.99,,,-99.99,WSDL version 426,2013-09-27 08:53:00,
2013-09-27 03:59:00,66.6,51.1,29.15,SE,127,2.6,3.6,58,-99.99,,,-99.99,WSDL version 426,2013-09-27 08:59:00,
2013-09-27 04:04:00,66.5,51.3,29.15,ESE,123,2.1,3.6,58,-99.99,,,-99.99,WSDL version 426,2013-09-27 09:04:00,
2013-09-27 04:09:00,66.4,51.2,29.15,SE,127,2.8,4.3,58,-99.99,,,-99.99,WSDL version 426,2013-09-27 09:09:00,
2013-09-27 04:14:00,66.2,51.0,29.15,SE,130,1.9,4.3,58,-99.99,,,-99.99,WSDL version 426,2013-09-27 09:14:00,
2013-09-27 04:19:00,66.2,51.0,29.15,ESE,118,2.0,4.0,58,-99.99,,,-99.99,WSDL version 426,2013-09-27 09:19:00,
2013-09-27 04:24:00,66.0,51.5,29.15,ESE,115,2.9,4.3,60,-99.99,,,-99.99,WSDL version 426,2013-09-27 09:24:00,
2013-09-27 04:29:00,65.9,51.9,29.15,ESE,118,3.3,4.3,61,-99.99,,,-99.99,WSDL version 426,2013-09-27 09:29:00,
2013-09-27 04:34:00,65.8,51.8,29.15,ESE,118,2.4,4.3,60,0.00,,,0.00,WSDL version 426,2013-09-27 09:34:00,
2013-09-27 04:39:00,65.8,51.9,29.15,ESE,120,3.4,5.8,61,0.00,,,0.00,WSDL version 426,2013-09-27 09:39:00,
2013-09-27 04:44:00,66.3,53.5,29.15,ESE,115,2.2,5.8,63,0.00,,,0.00,WSDL version 426,2013-09-27 09:44:00,
2013-09-27 04:49:00,66.8,52.9,29.15,SE,125,1.8,4.7,60,0.00,,,0.00,WSDL version 426,2013-09-27 09:49:00,
2013-09-27 04:54:00,66.5,52.1,29.15,ESE,118,2.1,3.4,59,0.00,,,0.00,WSDL version 426,2013-09-27 09:54:00,
2013-09-27 04:59:00,66.3,51.6,29.15,ESE,115,2.0,3.4,59,0.00,,,0.00,WSDL version 426,2013-09-27 09:59:00,
2013-09-27 05:04:00,66.1,51.4,29.15,SE,127,2.6,3.4,59,0.00,,,0.00,WSDL version 426,2013-09-27 10:04:00,
2013-09-27 05:09:00,66.0,51.8,29.15,ESE,113,3.5,4.9,61,-99.99,,,-99.99,WSDL version 426,2013-09-27 10:09:00,
2013-09-27 05:14:00,66.2,53.2,29.15,ESE,115,3.2,4.9,63,-99.99,,,-99.99,WSDL version 426,2013-09-27 10:14:00,
2013-09-27 05:19:00,66.7,53.5,29.15,ESE,118,3.2,4.9,62,-99.99,,,-99.99,WSDL version 426,2013-09-27 10:19:00,
2013-09-27 05:24:00,66.5,53.1,29.15,ESE,110,2.6,4.9,62,-99.99,,,-99.99,WSDL version 426,2013-09-27 10:24:00,
2013-09-27 05:29:00,66.1,52.8,29.15,ESE,110,2.1,4.0,62,-99.99,,,-99.99,WSDL version 426,2013-09-27 10:29:00,
2013-09-27 05:34:00,65.8,52.3,29.15,ESE,113,2.3,3.4,62,-99.99,,,-99.99,WSDL version 426,2013-09-27 10:34:00,
2013-09-27 05:39:00,65.6,52.3,29.15,East,100,3.1,4.3,63,-99.99,,,-99.99,WSDL version 426,2013-09-27 10:39:00,
2013-09-27 05:44:00,65.4,52.9,29.15,ESE,113,3.8,6.0,65,-99.99,,,-99.99,WSDL version 426,2013-09-27 10:44:00,
2013-09-27 05:49:00,65.2,53.2,29.18,ESE,105,3.5,6.0,66,-99.99,,,-99.99,WSDL version 426,2013-09-27 10:49:00,
2013-09-27 05:54:00,65.1,53.7,29.18,ESE,113,3.5,6.0,67,-99.99,,,-99.99,WSDL version 426,2013-09-27 10:54:00,
2013-09-27 05:59:00,65.1,53.8,29.18,ESE,108,3.2,4.9,67,-99.99,,,-99.99,WSDL version 426,2013-09-27 10:59:00,
2013-09-27 06:04:00,64.9,53.8,29.18,ESE,113,3.5,5.4,68,-99.99,,,-99.99,WSDL version 426,2013-09-27 11:04:00,
2013-09-27 06:09:00,64.9,54.1,29.18,ESE,107,2.9,5.4,68,-99.99,,,-99.99,WSDL version 426,2013-09-27 11:09:00,
2013-09-27 06:14:00,64.9,54.0,29.18,ESE,113,3.0,4.3,68,-99.99,,,-99.99,WSDL version 426,2013-09-27 11:14:00,
2013-09-27 06:19:00,64.8,53.8,29.18,ESE,115,2.9,4.3,67,-99.99,,,-99.99,WSDL version 426,2013-09-27 11:19:00,
2013-09-27 06:24:00,64.8,54.0,29.18,ESE,118,3.6,5.6,68,-99.99,,,-99.99,WSDL version 426,2013-09-27 11:24:00,
2013-09-27 06:29:00,64.8,54.0,29.18,ESE,110,3.2,5.6,68,-99.99,,,-99.99,WSDL version 426,2013-09-27 11:29:00,
2013-09-27 06:34:00,64.7,53.9,29.18,ESE,110,2.3,4.9,68,-99.99,,,-99.99,WSDL version 426,2013-09-27 11:34:00,
2013-09-27 06:39:00,64.6,53.8,29.18,ESE,115,2.6,4.3,68,-99.99,,,-99.99,WSDL version 426,2013-09-27 11:39:00,
2013-09-27 06:44:00,64.6,53.9,29.18,ESE,118,3.4,5.8,68,-99.99,,,-99.99,WSDL version 426,2013-09-27 11:44:00,
2013-09-27 06:49:00,64.6,54.1,29.18,ESE,110,2.4,5.8,68,-99.99,,,-99.99,WSDL version 426,2013-09-27 11:49:00,
2013-09-27 06:54:00,64.5,54.1,29.18,ESE,118,3.5,5.4,69,-99.99,,,-99.99,WSDL version 426,2013-09-27 11:54:00,
2013-09-27 06:59:00,64.4,54.4,29.18,ESE,120,4.3,6.5,70,-99.99,,,-99.99,WSDL version 426,2013-09-27 11:59:00,
2013-09-27 07:04:00,64.4,54.4,29.21,ESE,118,3.8,6.5,70,-99.99,,,-99.99,WSDL version 426,2013-09-27 12:04:00,
2013-09-27 07:09:00,64.2,54.4,29.21,ESE,115,3.6,5.6,71,-99.99,,,-99.99,WSDL version 426,2013-09-27 12:09:00,
2013-09-27 07:14:00,64.2,54.6,29.21,ESE,115,3.5,4.9,71,-99.99,,,-99.99,WSDL version 426,2013-09-27 12:14:00,
2013-09-27 07:19:00,64.2,54.6,29.21,ESE,113,3.6,6.0,71,-99.99,,,-99.99,WSDL version 426,2013-09-27 12:19:00,
2013-09-27 07:24:00,64.2,54.6,29.21,SE,135,2.1,6.0,71,-99.99,,,-99.99,WSDL version 426,2013-09-27 12:24:00,
2013-09-27 07:29:00,64.2,54.6,29.21,SSE,158,2.5,4.3,71,-99.99,,,-99.99,WSDL version 426,2013-09-27 12:29:00,
2013-09-27 07:34:00,64.4,54.5,29.21,ESE,113,2.0,4.3,71,-99.99,,,-99.99,WSDL version 426,2013-09-27 12:34:00,
2013-09-27 07:39:00,64.4,54.4,29.21,ESE,121,1.9,4.3,70,-99.99,,,-99.99,WSDL version 426,2013-09-27 12:39:00,
2013-09-27 07:44:00,64.4,54.4,29.21,ESE,118,1.5,3.6,70,-99.99,,,-99.99,WSDL version 426,2013-09-27 12:44:00,
2013-09-27 07:49:00,64.4,54.4,29.21,SE,125,2.4,4.0,70,-99.99,,,-99.99,WSDL version 426,2013-09-27 12:49:00,
2013-09-27 07:54:00,64.7,54.8,29.21,SE,146,2.4,4.0,71,-99.99,,,-99.99,WSDL version 426,2013-09-27 12:54:00,
2013-09-27 07:59:00,64.9,55.2,29.21,SSE,153,2.9,5.4,71,-99.99,,,-99.99,WSDL version 426,2013-09-27 12:59:00,
2013-09-27 08:04:00,65.2,55.6,29.21,SE,129,1.8,5.4,71,-99.99,,,-99.99,WSDL version 426,2013-09-27 13:04:00,
2013-09-27 08:09:00,65.5,55.9,29.21,ESE,123,3.5,6.5,71,-99.99,,,-99.99,WSDL version 426,2013-09-27 13:09:00,
2013-09-27 08:14:00,65.8,56.2,29.21,SSE,152,3.6,6.5,71,-99.99,,,-99.99,WSDL version 426,2013-09-27 13:14:00,
2013-09-27 08:19:00,66.2,56.2,29.21,SE,133,2.9,5.6,70,-99.99,,,-99.99,WSDL version 426,2013-09-27 13:19:00,
2013-09-27 08:24:00,66.5,56.4,29.21,ESE,115,4.3,7.8,70,-99.99,,,-99.99,WSDL version 426,2013-09-27 13:24:00,
2013-09-27 08:29:00,66.9,56.4,29.21,SE,132,3.3,7.8,69,-99.99,,,-99.99,WSDL version 426,2013-09-27 13:29:00,
2013-09-27 08:34:00,67.3,56.5,29.21,SE,135,5.6,8.7,68,-99.99,,,-99.99,WSDL version 426,2013-09-27 13:34:00,
2013-09-27 08:39:00,67.6,56.7,29.21,SE,125,4.2,8.7,68,-99.99,,,-99.99,WSDL version 426,2013-09-27 13:39:00,
2013-09-27 08:44:00,68.0,56.6,29.21,SE,133,4.9,8.5,66,-99.99,,,-99.99,WSDL version 426,2013-09-27 13:44:00,
2013-09-27 08:49:00,68.4,56.4,29.21,SE,124,4.7,8.5,65,-99.99,,,-99.99,WSDL version 426,2013-09-27 13:49:00,
2013-09-27 08:54:00,68.8,56.5,29.21,ESE,123,6.2,10.3,64,-99.99,,,-99.99,WSDL version 426,2013-09-27 13:54:00,
2013-09-27 08:59:00,69.2,56.2,29.21,ESE,121,4.5,10.3,63,-99.99,,,-99.99,WSDL version 426,2013-09-27 13:59:00,
2013-09-27 09:04:00,69.6,56.3,29.21,ESE,123,6.0,9.8,62,-99.99,,,-99.99,WSDL version 426,2013-09-27 14:04:00,
2013-09-27 09:09:00,70.1,55.9,29.21,SE,125,6.3,8.7,60,-99.99,,,-99.99,WSDL version 426,2013-09-27 14:09:00,
2013-09-27 09:14:00,70.6,55.4,29.21,SE,127,6.0,11.0,58,-99.99,,,-99.99,WSDL version 426,2013-09-27 14:14:00,
2013-09-27 09:19:00,71.1,54.9,29.21,ESE,118,5.8,12.8,56,-99.99,,,-99.99,WSDL version 426,2013-09-27 14:19:00,
2013-09-27 09:24:00,71.6,54.7,29.21,ESE,121,8.1,12.8,54,-99.99,,,-99.99,WSDL version 426,2013-09-27 14:24:00,
2013-09-27 09:29:00,72.1,53.9,29.21,SE,128,7.9,15.4,52,-99.99,,,-99.99,WSDL version 426,2013-09-27 14:29:00,
2013-09-27 09:34:00,72.4,53.5,29.21,SE,125,8.3,15.4,51,-99.99,,,-99.99,WSDL version 426,2013-09-27 14:34:00,
2013-09-27 09:39:00,72.9,53.5,29.21,SE,135,7.9,13.9,50,-99.99,,,-99.99,WSDL version 426,2013-09-27 14:39:00,
2013-09-27 09:44:00,73.4,53.3,29.21,ESE,115,8.3,13.0,49,-99.99,,,-99.99,WSDL version 426,2013-09-27 14:44:00,
2013-09-27 09:49:00,73.8,53.0,29.21,SE,124,8.2,13.9,48,-99.99,,,-99.99,WSDL version 426,2013-09-27 14:49:00,
2013-09-27 09:54:00,74.2,53.0,29.21,SE,143,7.3,13.9,47,-99.99,,,-99.99,WSDL version 426,2013-09-27 14:54:00,
2013-09-27 09:59:00,74.8,53.3,29.21,ESE,121,8.3,13.0,46,-99.99,,,-99.99,WSDL version 426,2013-09-27 14:59:00,
2013-09-27 10:04:00,75.2,53.0,29.21,SE,128,7.2,12.5,46,-99.99,,,-99.99,WSDL version 426,2013-09-27 15:04:00,
2013-09-27 10:09:00,75.7,52.9,29.21,ESE,120,8.3,12.5,45,-99.99,,,-99.99,WSDL version 426,2013-09-27 15:09:00,
2013-09-27 10:14:00,76.2,52.7,29.21,ESE,123,7.0,12.3,44,-99.99,,,-99.99,WSDL version 426,2013-09-27 15:14:00,
2013-09-27 10:19:00,76.7,53.2,29.21,SE,135,6.7,11.2,44,-99.99,,,-99.99,WSDL version 426,2013-09-27 15:19:00,
2013-09-27 10:24:00,77.2,52.6,29.21,SE,124,8.6,11.9,42,-99.99,,,-99.99,WSDL version 426,2013-09-27 15:24:00,
2013-09-27 10:29:00,77.7,52.8,29.21,ESE,115,8.1,15.4,42,-99.99,,,-99.99,WSDL version 426,2013-09-27 15:29:00,
2013-09-27 10:34:00,78.1,53.2,29.21,SE,125,8.2,15.4,42,-99.99,,,-99.99,WSDL version 426,2013-09-27 15:34:00,
2013-09-27 10:39:00,78.6,52.9,29.21,ESE,120,7.4,12.1,41,-99.99,,,-99.99,WSDL version 426,2013-09-27 15:39:00,
2013-09-27 10:44:00,79.0,52.7,29.21,SE,138,5.5,12.1,41,-99.99,,,-99.99,WSDL version 426,2013-09-27 15:44:00,
2013-09-27 10:49:00,79.4,53.0,29.21,SE,132,9.5,15.7,40,-99.99,,,-99.99,WSDL version 426,2013-09-27 15:49:00,
2013-09-27 10:54:00,79.8,53.3,29.21,SE,133,7.9,15.7,40,-99.99,,,-99.99,WSDL version 426,2013-09-27 15:54:00,
2013-09-27 10:59:00,80.2,53.1,29.21,SE,129,6.9,13.4,40,-99.99,,,-99.99,WSDL version 426,2013-09-27 15:59:00,
2013-09-27 11:04:00,80.7,53.2,29.21,SE,133,6.7,12.3,38,-99.99,,,-99.99,WSDL version 426,2013-09-27 16:04:00,
2013-09-27 11:09:00,81.3,52.7,29.21,SE,127,5.4,12.8,37,-99.99,,,-99.99,WSDL version 426,2013-09-27 16:09:00,
2013-09-27 11:14:00,81.7,52.9,29.21,SE,132,6.5,12.8,37,-99.99,,,-99.99,WSDL version 426,2013-09-27 16:14:00,
2013-09-27 11:19:00,82.3,53.2,29.21,ESE,120,6.0,13.4,36,-99.99,,,-99.99,WSDL version 426,2013-09-27 16:19:00,
2013-09-27 11:24:00,82.6,52.3,29.21,ESE,118,7.7,13.4,35,-99.99,,,-99.99,WSDL version 426,2013-09-27 16:24:00,
2013-09-27 11:29:00,83.0,52.5,29.21,ESE,115,6.0,11.4,35,-99.99,,,-99.99,WSDL version 426,2013-09-27 16:29:00,
2013-09-27 11:34:00,83.5,52.0,29.21,SSE,149,7.6,12.3,34,-99.99,,,-99.99,WSDL version 426,2013-09-27 16:34:00,
2013-09-27 11:39:00,83.6,51.6,29.21,ESE,118,8.4,14.5,33,-99.99,,,-99.99,WSDL version 426,2013-09-27 16:39:00,
2013-09-27 11:44:00,84.0,51.9,29.21,SE,127,5.6,15.2,33,-99.99,,,-99.99,WSDL version 426,2013-09-27 16:44:00,
2013-09-27 11:49:00,84.3,51.3,29.21,SE,138,8.9,15.2,32,-99.99,,,-99.99,WSDL version 426,2013-09-27 16:49:00,
2013-09-27 11:54:00,84.7,51.6,29.21,SSE,150,5.8,14.1,32,-99.99,,,-99.99,WSDL version 426,2013-09-27 16:54:00,
2013-09-27 11:59:00,85.1,51.6,29.21,ESE,103,6.6,11.9,32,-99.99,,,-99.99,WSDL version 426,2013-09-27 16:59:00,
2013-09-27 12:04:00,85.7,52.1,29.21,SE,140,8.7,13.9,31,-99.99,,,-99.99,WSDL version 426,2013-09-27 17:04:00,
2013-09-27 12:09:00,85.9,51.0,29.21,ESE,118,9.5,14.3,30,-99.99,,,-99.99,WSDL version 426,2013-09-27 17:09:00,
2013-09-27 12:15:00,86.1,50.9,29.21,SSE,160,6.9,13.0,30,-99.99,,,-99.99,WSDL version 426,2013-09-27 17:15:00,
2013-09-27 12:20:00,86.6,50.9,29.21,SE,143,7.0,16.8,29,-99.99,,,-99.99,WSDL version 426,2013-09-27 17:20:00,
2013-09-27 12:25:00,87.0,50.9,29.21,SE,138,7.2,16.8,29,-99.99,,,-99.99,WSDL version 426,2013-09-27 17:25:00,
2013-09-27 12:30:00,87.6,51.1,29.21,SSE,149,8.7,13.2,28,-99.99,,,-99.99,WSDL version 426,2013-09-27 17:30:00,
2013-09-27 12:36:00,87.8,50.7,29.18,SE,125,6.1,13.2,28,-99.99,,,-99.99,WSDL version 426,2013-09-27 17:36:00,
2013-09-27 12:41:00,87.7,50.6,29.18,SE,132,6.4,12.3,28,-99.99,,,-99.99,WSDL version 426,2013-09-27 17:41:00,
2013-09-27 12:46:00,88.0,49.3,29.18,SSE,160,9.0,15.2,25,-99.99,,,-99.99,WSDL version 426,2013-09-27 17:46:00,
2013-09-27 12:51:00,88.1,48.3,29.18,SE,138,5.8,15.2,27,-99.99,,,-99.99,WSDL version 426,2013-09-27 17:51:00,
2013-09-27 12:56:00,88.6,50.1,29.18,SE,133,8.9,14.5,27,-99.99,,,-99.99,WSDL version 426,2013-09-27 17:56:00,
2013-09-27 13:01:00,88.7,49.1,29.21,ESE,106,8.8,15.2,26,-99.99,,,-99.99,WSDL version 426,2013-09-27 18:01:00,
2013-09-27 13:06:00,89.0,49.2,29.21,SE,138,8.9,15.2,26,-99.99,,,-99.99,WSDL version 426,2013-09-27 18:06:00,
2013-09-27 13:11:00,89.2,48.6,29.21,SE,140,7.8,14.3,25,-99.99,,,-99.99,WSDL version 426,2013-09-27 18:11:00,
2013-09-27 13:16:00,89.2,47.9,29.18,SSE,149,6.7,19.0,24,-99.99,,,-99.99,WSDL version 426,2013-09-27 18:16:00,
2013-09-27 13:21:00,89.6,48.0,29.18,ESE,120,8.7,19.0,23,-99.99,,,-99.99,WSDL version 426,2013-09-27 18:21:00,
2013-09-27 13:26:00,89.7,47.3,29.18,SE,129,8.2,13.4,22,-99.99,,,-99.99,WSDL version 426,2013-09-27 18:26:00,
2013-09-27 13:31:00,89.7,46.2,29.18,South,170,7.4,13.0,22,-99.99,,,-99.99,WSDL version 426,2013-09-27 18:31:00,
2013-09-27 13:36:00,89.8,46.4,29.18,SE,124,10.6,15.2,22,-99.99,,,-99.99,WSDL version 426,2013-09-27 18:36:00,
2013-09-27 13:41:00,89.9,46.2,29.18,SE,135,8.8,15.4,22,-99.99,,,-99.99,WSDL version 426,2013-09-27 18:41:00,
2013-09-27 13:46:00,90.3,45.5,29.18,SE,125,6.7,15.4,21,-99.99,,,-99.99,WSDL version 426,2013-09-27 18:46:00,
2013-09-27 13:51:00,91.0,45.2,29.18,South,183,6.0,12.8,20,-99.99,,,-99.99,WSDL version 426,2013-09-27 18:51:00,
2013-09-27 13:56:00,90.8,44.2,29.18,South,175,6.7,15.2,20,-99.99,,,-99.99,WSDL version 426,2013-09-27 18:56:00,
2013-09-27 14:01:00,90.6,44.3,29.18,SE,146,7.5,17.7,20,-99.99,,,-99.99,WSDL version 426,2013-09-27 19:01:00,
2013-09-27 14:06:00,90.9,44.3,29.18,SE,135,8.2,17.7,20,-99.99,,,-99.99,WSDL version 426,2013-09-27 19:06:00,
2013-09-27 14:11:00,91.2,44.6,29.18,SSE,149,8.3,14.3,20,-99.99,,,-99.99,WSDL version 426,2013-09-27 19:11:00,
2013-09-27 14:16:00,91.5,43.9,29.15,South,178,8.5,15.2,19,-99.99,,,-99.99,WSDL version 426,2013-09-27 19:16:00,
2013-09-27 14:21:00,91.5,44.0,29.15,SSE,155,8.5,15.2,19,-99.99,,,-99.99,WSDL version 426,2013-09-27 19:21:00,
2013-09-27 14:26:00,91.7,43.7,29.15,SSE,155,7.3,14.8,19,-99.99,,,-99.99,WSDL version 426,2013-09-27 19:26:00,
2013-09-27 14:31:00,92.5,44.5,29.15,SE,125,6.7,13.0,19,-99.99,,,-99.99,WSDL version 426,2013-09-27 19:31:00,
2013-09-27 14:36:00,93.1,44.2,29.15,ESE,121,9.9,13.2,19,-99.99,,,-99.99,WSDL version 426,2013-09-27 19:36:00,
2013-09-27 14:41:00,92.8,44.1,29.15,SSE,153,7.5,13.2,18,-99.99,,,-99.99,WSDL version 426,2013-09-27 19:41:00,
2013-09-27 14:46:00,92.2,43.1,29.15,ESE,118,9.8,13.2,19,-99.99,,,-99.99,WSDL version 426,2013-09-27 19:46:00,
2013-09-27 14:51:00,92.5,43.7,29.15,SE,135,9.1,15.7,18,-99.99,,,-99.99,WSDL version 426,2013-09-27 19:51:00,
2013-09-27 14:56:00,92.3,43.0,29.15,SE,143,8.7,17.2,18,-99.99,,,-99.99,WSDL version 426,2013-09-27 19:56:00,
2013-09-27 15:01:00,92.3,43.0,29.15,SE,132,9.9,17.2,18,-99.99,,,-99.99,WSDL version 426,2013-09-27 20:01:00,
2013-09-27 15:06:00,92.6,43.5,29.15,SSE,168,7.5,15.2,18,-99.99,,,-99.99,WSDL version 426,2013-09-27 20:06:00,
2013-09-27 15:11:00,93.0,43.3,29.15,SE,135,7.9,12.5,18,-99.99,,,-99.99,WSDL version 426,2013-09-27 20:11:00,
2013-09-27 15:16:00,93.8,42.7,29.12,SE,128,8.3,13.0,17,-99.99,,,-99.99,WSDL version 426,2013-09-27 20:16:00,
2013-09-27 15:21:00,93.5,42.2,29.12,SE,143,9.5,15.7,17,-99.99,,,-99.99,WSDL version 426,2013-09-27 20:21:00,
2013-09-27 15:26:00,93.6,42.2,29.12,SE,145,8.7,17.2,17,-99.99,,,-99.99,WSDL version 426,2013-09-27 20:26:00,
2013-09-27 15:31:00,93.8,43.4,29.12,SE,135,9.0,17.2,18,-99.99,,,-99.99,WSDL version 426,2013-09-27 20:31:00,
2013-09-27 15:36:00,93.9,42.8,29.12,SE,138,9.0,14.8,17,-99.99,,,-99.99,WSDL version 426,2013-09-27 20:36:00,
2013-09-27 15:41:00,94.3,42.8,29.12,SE,124,7.4,17.4,17,-99.99,,,-99.99,WSDL version 426,2013-09-27 20:41:00,
2013-09-27 15:46:00,94.3,42.8,29.12,SE,132,12.5,17.9,17,-99.99,,,-99.99,WSDL version 426,2013-09-27 20:46:00,
2013-09-27 15:51:00,94.8,42.6,29.12,SE,133,7.1,17.9,16,-99.99,,,-99.99,WSDL version 426,2013-09-27 20:51:00,
2013-09-27 15:56:00,94.9,41.8,29.12,SSE,154,7.4,12.8,16,-99.99,,,-99.99,WSDL version 426,2013-09-27 20:56:00,
2013-09-27 16:01:00,95.4,42.4,29.12,SE,130,6.9,11.0,16,-99.99,,,-99.99,WSDL version 426,2013-09-27 21:01:00,
2013-09-27 16:06:00,96.0,42.7,29.12,SE,138,10.3,24.6,16,-99.99,,,-99.99,WSDL version 426,2013-09-27 21:06:00,
2013-09-27 16:11:00,95.9,42.0,29.12,SSE,149,9.8,24.6,14,-99.99,,,-99.99,WSDL version 426,2013-09-27 21:11:00,
2013-09-27 16:16:00,95.9,38.1,29.12,SSE,165,6.5,17.4,14,-99.99,,,-99.99,WSDL version 426,2013-09-27 21:16:00,
2013-09-27 16:21:00,96.4,35.8,29.12,SSE,161,9.2,15.2,11,-99.99,,,-99.99,WSDL version 426,2013-09-27 21:21:00,
2013-09-27 16:26:00,96.4,39.5,29.12,ESE,113,10.9,14.8,14,-99.99,,,-99.99,WSDL version 426,2013-09-27 21:26:00,
2013-09-27 16:31:00,97.1,38.1,29.12,SSE,149,6.4,14.8,13,-99.99,,,-99.99,WSDL version 426,2013-09-27 21:31:00,
2013-09-27 16:36:00,96.8,37.1,29.12,SE,125,8.2,14.5,13,-99.99,,,-99.99,WSDL version 426,2013-09-27 21:36:00,
2013-09-27 16:41:00,96.5,34.2,29.12,SSE,155,10.1,21.9,11,-99.99,,,-99.99,WSDL version 426,2013-09-27 21:41:00,
2013-09-27 16:46:00,97.2,34.0,29.12,SSE,148,4.3,21.9,11,-99.99,,,-99.99,WSDL version 426,2013-09-27 21:46:00,
2013-09-27 16:51:00,97.8,34.4,29.12,SE,128,9.4,14.8,11,-99.99,,,-99.99,WSDL version 426,2013-09-27 21:51:00,
2013-09-27 16:56:00,97.5,34.2,29.12,SE,132,8.9,13.2,11,-99.99,,,-99.99,WSDL version 426,2013-09-27 21:56:00,
2013-09-27 17:01:00,97.1,33.9,29.12,ESE,120,7.2,13.2,11,-99.99,,,-99.99,WSDL version 426,2013-09-27 22:01:00,
2013-09-27 17:06:00,97.0,33.9,29.12,SSE,152,8.7,14.5,11,-99.99,,,-99.99,WSDL version 426,2013-09-27 22:06:00,
2013-09-27 17:11:00,97.4,31.5,29.12,SE,135,8.7,14.5,8,-99.99,,,-99.99,WSDL version 426,2013-09-27 22:11:00,
2013-09-27 17:16:00,97.8,34.5,29.12,SE,140,8.7,12.8,11,-99.99,,,-99.99,WSDL version 426,2013-09-27 22:16:00,
2013-09-27 17:21:00,97.8,33.1,29.12,SE,124,8.2,12.5,11,-99.99,,,-99.99,WSDL version 426,2013-09-27 22:21:00,
2013-09-27 17:26:00,97.6,34.3,29.12,ESE,123,4.9,10.3,11,-99.99,,,-99.99,WSDL version 426,2013-09-27 22:26:00,
2013-09-27 17:31:00,97.1,33.9,29.12,SE,129,7.5,13.0,11,-99.99,,,-99.99,WSDL version 426,2013-09-27 22:31:00,
2013-09-27 17:36:00,96.9,33.8,29.12,SE,140,8.9,19.9,11,-99.99,,,-99.99,WSDL version 426,2013-09-27 22:36:00,
2013-09-27 17:41:00,96.7,33.6,29.12,SSE,163,7.4,19.9,11,-99.99,,,-99.99,WSDL version 426,2013-09-27 22:41:00,
2013-09-27 17:46:00,96.1,33.2,29.09,SE,133,8.0,18.8,11,-99.99,,,-99.99,WSDL version 426,2013-09-27 22:46:00,
2013-09-27 17:51:00,95.6,32.8,29.09,ESE,113,8.1,18.8,11,-99.99,,,-99.99,WSDL version 426,2013-09-27 22:51:00,
2013-09-27 17:56:00,95.4,32.6,29.09,SE,127,8.6,17.9,11,-99.99,,,-99.99,WSDL version 426,2013-09-27 22:56:00,
2013-09-27 18:01:00,95.6,32.8,29.09,SE,143,5.5,12.3,11,-99.99,,,-99.99,WSDL version 426,2013-09-27 23:01:00,
2013-09-27 18:06:00,95.7,32.9,29.09,SE,127,7.7,11.0,11,-99.99,,,-99.99,WSDL version 426,2013-09-27 23:06:00,
2013-09-27 18:11:00,95.3,32.5,29.09,SE,130,6.9,10.7,11,-99.99,,,-99.99,WSDL version 426,2013-09-27 23:11:00,
2013-09-27 18:16:00,94.6,32.0,29.09,SE,143,6.7,13.0,11,-99.99,,,-99.99,WSDL version 426,2013-09-27 23:16:00,
2013-09-27 18:21:00,94.3,32.8,29.09,SE,145,4.9,13.0,14,-99.99,,,-99.99,WSDL version 426,2013-09-27 23:21:00,
2013-09-27 18:26:00,93.8,37.4,29.09,SE,138,5.0,9.2,14,-99.99,,,-99.99,WSDL version 426,2013-09-27 23:26:00,
2013-09-27 18:31:00,93.7,37.4,29.09,SSE,155,4.6,8.1,14,-99.99,,,-99.99,WSDL version 426,2013-09-27 23:31:00,
2013-09-27 18:36:00,93.4,37.1,29.09,SE,133,5.5,8.1,14,-99.99,,,-99.99,WSDL version 426,2013-09-27 23:36:00,
2013-09-27 18:41:00,92.5,36.4,29.09,SE,124,6.8,8.7,14,-99.99,,,-99.99,WSDL version 426,2013-09-27 23:41:00,
2013-09-27 18:46:00,91.2,36.4,29.09,SE,128,6.6,11.0,15,-99.99,,,-99.99,WSDL version 426,2013-09-27 23:46:00,
2013-09-27 18:51:00,90.4,39.7,29.09,SE,141,5.4,11.0,17,-99.99,,,-99.99,WSDL version 426,2013-09-27 23:51:00,
2013-09-27 18:56:00,89.4,39.7,29.09,SE,128,6.2,9.6,18,-99.99,,,-99.99,WSDL version 426,2013-09-27 23:56:00,
2013-09-27 19:01:00,88.2,39.7,29.09,SE,125,5.5,9.6,19,-99.99,,,-99.99,WSDL version 426,2013-09-28 00:01:00,
2013-09-27 19:06:00,86.9,39.7,29.09,SE,124,4.8,7.6,19,-99.99,,,-99.99,WSDL version 426,2013-09-28 00:06:00,
2013-09-27 19:11:00,85.8,39.9,29.09,SE,128,6.0,9.6,20,-99.99,,,-99.99,WSDL version 426,2013-09-28 00:11:00,
2013-09-27 19:16:00,85.2,39.6,29.09,SE,124,7.6,11.0,20,-99.99,,,-99.99,WSDL version 426,2013-09-28 00:16:00,
2013-09-27 19:21:00,84.6,40.4,29.09,East,100,6.8,11.0,21,-99.99,,,-99.99,WSDL version 426,2013-09-28 00:21:00,
2013-09-27 19:26:00,83.6,40.8,29.09,SE,124,8.5,11.9,22,-99.99,,,-99.99,WSDL version 426,2013-09-28 00:26:00,
2013-09-27 19:31:00,83.2,41.4,29.09,SE,133,6.3,11.9,23,-99.99,,,-99.99,WSDL version 426,2013-09-28 00:31:00,
2013-09-27 19:36:00,83.2,41.6,29.09,SE,133,7.0,10.1,23,-99.99,,,-99.99,WSDL version 426,2013-09-28 00:36:00,
2013-09-27 19:41:00,82.8,41.5,29.09,SE,124,6.7,10.3,24,-99.99,,,-99.99,WSDL version 426,2013-09-28 00:41:00,
2013-09-27 19:46:00,82.1,42.4,29.09,ESE,110,7.3,13.0,25,-99.99,,,-99.99,WSDL version 426,2013-09-28 00:46:00,
2013-09-27 19:51:00,81.6,43.1,29.09,ESE,118,6.8,13.0,26,-99.99,,,-99.99,WSDL version 426,2013-09-28 00:51:00,
2013-09-27 19:56:00,81.7,43.6,29.09,SE,130,6.8,10.5,26,-99.99,,,-99.99,WSDL version 426,2013-09-28 00:56:00,
2013-09-27 20:01:00,81.5,44.2,29.09,SE,129,7.2,10.5,27,-99.99,,,-99.99,WSDL version 426,2013-09-28 01:01:00,
2013-09-27 20:06:00,80.9,44.7,29.09,ESE,120,7.1,12.1,29,-99.99,,,-99.99,WSDL version 426,2013-09-28 01:06:00,
2013-09-27 20:11:00,80.5,45.9,29.09,SE,125,6.1,12.1,30,-99.99,,,-99.99,WSDL version 426,2013-09-28 01:11:00,
2013-09-27 20:16:00,80.4,46.0,29.09,SE,138,4.9,10.1,29,-99.99,,,-99.99,WSDL version 426,2013-09-28 01:16:00,
2013-09-27 20:21:00,80.8,45.6,29.09,SE,130,6.7,10.1,29,-99.99,,,-99.99,WSDL version 426,2013-09-28 01:21:00,
2013-09-27 20:26:00,80.4,46.0,29.09,ESE,115,6.7,10.1,30,-99.99,,,-99.99,WSDL version 426,2013-09-28 01:26:00,
2013-09-27 20:31:00,80.1,45.9,29.09,SE,125,5.6,10.1,30,-99.99,,,-99.99,WSDL version 426,2013-09-28 01:31:00,
2013-09-27 20:36:00,80.5,46.2,29.09,SE,127,7.5,12.8,30,-99.99,,,-99.99,WSDL version 426,2013-09-28 01:36:00,
2013-09-27 20:41:00,80.8,46.5,29.09,SE,140,5.3,12.8,30,-99.99,,,-99.99,WSDL version 426,2013-09-28 01:41:00,
2013-09-27 20:46:00,80.8,46.5,29.09,SE,128,6.0,10.3,30,-99.99,,,-99.99,WSDL version 426,2013-09-28 01:46:00,
2013-09-27 20:51:00,80.7,46.4,29.09,ESE,118,7.1,12.5,30,-99.99,,,-99.99,WSDL version 426,2013-09-28 01:51:00,
2013-09-27 20:56:00,80.7,46.4,29.09,ESE,123,6.2,12.5,30,-99.99,,,-99.99,WSDL version 426,2013-09-28 01:56:00,
2013-09-27 21:01:00,80.7,46.5,29.09,ESE,118,6.2,10.1,30,-99.99,,,-99.99,WSDL version 426,2013-09-28 02:01:00,
2013-09-27 21:06:00,80.6,46.6,29.09,SE,125,6.5,11.0,31,-99.99,,,-99.99,WSDL version 426,2013-09-28 02:06:00,
2013-09-27 21:11:00,80.0,46.7,29.09,SE,132,7.6,13.2,31,-99.99,,,-99.99,WSDL version 426,2013-09-28 02:11:00,
2013-09-27 21:16:00,80.2,46.9,29.09,SE,128,6.5,13.2,31,-99.99,,,-99.99,WSDL version 426,2013-09-28 02:16:00,
2013-09-27 21:21:00,80.4,47.1,29.09,ESE,120,7.4,13.9,31,-99.99,,,-99.99,WSDL version 426,2013-09-28 02:21:00,
2013-09-27 21:26:00,80.0,46.7,29.09,SE,133,6.8,13.9,31,-99.99,,,-99.99,WSDL version 426,2013-09-28 02:26:00,
2013-09-27 21:31:00,79.7,47.0,29.09,ESE,123,6.9,10.7,32,-99.99,,,-99.99,WSDL version 426,2013-09-28 02:31:00,
2013-09-27 21:36:00,79.7,47.3,29.09,SE,127,9.1,13.2,32,-99.99,,,-99.99,WSDL version 426,2013-09-28 02:36:00,
2013-09-27 21:41:00,79.9,47.4,29.09,ESE,118,6.4,13.2,32,-99.99,,,-99.99,WSDL version 426,2013-09-28 02:41:00,
2013-09-27 21:46:00,79.7,47.2,29.12,ESE,104,6.2,10.3,32,-99.99,,,-99.99,WSDL version 426,2013-09-28 02:46:00,
2013-09-27 21:51:00,79.0,46.7,29.12,ESE,115,5.7,10.7,32,-99.99,,,-99.99,WSDL version 426,2013-09-28 02:51:00,
2013-09-27 21:56:00,78.8,46.6,29.12,SE,129,6.2,10.7,32,-99.99,,,-99.99,WSDL version 426,2013-09-28 02:56:00,
2013-09-27 22:01:00,79.0,46.6,29.12,ESE,118,6.3,10.5,32,-99.99,,,-99.99,WSDL version 426,2013-09-28 03:01:00,
2013-09-27 22:06:00,78.8,47.0,29.12,SE,128,4.6,10.1,33,-99.99,,,-99.99,WSDL version 426,2013-09-28 03:06:00,
2013-09-27 22:11:00,78.1,46.8,29.12,SE,127,5.7,8.5,34,-99.99,,,-99.99,WSDL version 426,2013-09-28 03:11:00,
2013-09-27 22:16:00,77.8,47.2,29.12,ESE,123,4.8,8.1,34,-99.99,,,-99.99,WSDL version 426,2013-09-28 03:16:00,
2013-09-27 22:21:00,78.1,47.4,29.12,SE,129,4.6,8.1,34,-99.99,,,-99.99,WSDL version 426,2013-09-28 03:21:00,
2013-09-27 22:26:00,77.8,47.2,29.12,ESE,123,5.1,7.8,34,-99.99,,,-99.99,WSDL version 426,2013-09-28 03:26:00,
2013-09-27 22:31:00,77.1,47.4,29.12,ESE,115,4.7,7.4,35,-99.99,,,-99.99,WSDL version 426,2013-09-28 03:31:00,
2013-09-27 22:36:00,76.6,48.0,29.12,SE,129,4.1,6.7,37,-99.99,,,-99.99,WSDL version 426,2013-09-28 03:36:00,
2013-09-27 22:41:00,76.9,48.3,29.12,SE,125,4.5,6.9,36,-99.99,,,-99.99,WSDL version 426,2013-09-28 03:41:00,
2013-09-27 22:46:00,76.8,47.9,29.12,SE,132,3.5,6.9,36,-99.99,,,-99.99,WSDL version 426,2013-09-28 03:46:00,
2013-09-27 22:51:00,76.1,48.1,29.12,SE,124,4.0,7.6,38,-99.99,,,-99.99,WSDL version 426,2013-09-28 03:51:00,
2013-09-27 22:56:00,75.5,48.4,29.12,SE,124,5.0,7.8,39,-99.99,,,-99.99,WSDL version 426,2013-09-28 03:56:00,
2013-09-27 23:01:00,75.8,49.1,29.12,SE,130,4.3,7.8,39,-99.99,,,-99.99,WSDL version 426,2013-09-28 04:01:00,
2013-09-27 23:02:00,75.9,49.2,29.12,SE,132,4.7,7.8,39,-99.99,,,-99.99,WSDL version 426,2013-09-28 04:02:00,
2013-09-27 23:03:00,76.0,49.3,29.12,SE,129,5.2,7.8,39,-99.99,,,-99.99,WSDL version 426,2013-09-28 04:03:00,
2013-09-27 23:04:00,76.1,49.3,29.12,ESE,118,5.0,7.8,39,-99.99,,,-99.99,WSDL version 426,2013-09-28 04:04:00,
2013-09-27 23:09:00,75.8,49.2,29.12,SE,125,4.2,7.8,40,-99.99,,,-99.99,WSDL version 426,2013-09-28 04:09:00,
2013-09-27 23:12:00,75.4,49.3,29.12,ESE,120,5.8,7.8,40,-99.99,,,-99.99,WSDL version 426,2013-09-28 04:12:00,
2013-09-27 23:17:00,75.0,49.7,29.12,ESE,118,5.1,7.8,41,-99.99,,,-99.99,WSDL version 426,2013-09-28 04:17:00,
2013-09-27 23:22:00,74.8,50.1,29.12,ESE,120,4.3,7.8,42,-99.99,,,-99.99,WSDL version 426,2013-09-28 04:22:00,
2013-09-27 23:27:00,75.4,50.1,29.12,SE,130,4.3,7.8,41,-99.99,,,-99.99,WSDL version 426,2013-09-28 04:27:00,
2013-09-27 23:32:00,75.3,50.1,29.12,SE,124,4.1,7.8,42,-99.99,,,-99.99,WSDL version 426,2013-09-28 04:32:00,
2013-09-27 23:37:00,74.8,50.2,29.12,SE,125,4.7,7.8,42,-99.99,,,-99.99,WSDL version 426,2013-09-28 04:37:00,
2013-09-27 23:42:00,74.4,50.1,29.12,ESE,121,4.7,7.8,43,-99.99,,,-99.99,WSDL version 426,2013-09-28 04:42:00,
2013-09-27 23:47:00,74.1,50.2,29.12,SE,132,6.0,8.5,43,-99.99,,,-99.99,WSDL version 426,2013-09-28 04:47:00,
2013-09-27 23:52:00,74.4,50.4,29.12,ESE,118,5.6,8.5,43,-99.99,,,-99.99,WSDL version 426,2013-09-28 04:52:00,
2013-09-27 23:57:00,74.6,50.6,29.12,SE,127,4.9,8.1,43,-99.99,,,-99.99,WSDL version 426,2013-09-28 04:57:00,